sensor_id;sensor_type;location;lat;lon;timestamp;P1;durP1;ratioP1;P2;durP2;ratioP2
12816;SDS011;6473;51.552;6.716;2022-12-07T00:01:15;15.60;;;10.73;;
12816;SDS011;6473;51.552;6.716;2022-12-07T00:03:44;15.33;;;11.03;;
12816;SDS011;6473;51.552;6.716;2022-12-07T00:06:13;11.97;;;10.57;;
12816;SDS011;6473;51.552;6.716;2022-12-07T00:08:41;12.07;;;10.43;;
12816;SDS011;6473;51.552;6.716;2022-12-07T00:11:10;16.63;;;11.67;;
12816;SDS011;6473;51.552;6.716;2022-12-07T00:13:38;16.57;;;11.40;;
12816;SDS011;6473;51.552;6.716;2022-12-07T00:16:07;15.30;;;11.93;;
12816;SDS011;6473;51.552;6.716;2022-12-07T00:18:35;15.67;;;11.50;;
12816;SDS011;6473;51.552;6.716;2022-12-07T00:21:03;14.33;;;11.37;;
12816;SDS011;6473;51.552;6.716;2022-12-07T00:23:31;15.80;;;12.63;;
12816;SDS011;6473;51.552;6.716;2022-12-07T00:26:02;16.90;;;13.10;;
12816;SDS011;6473;51.552;6.716;2022-12-07T00:28:32;16.77;;;12.50;;
12816;SDS011;6473;51.552;6.716;2022-12-07T00:31:00;16.13;;;13.17;;
12816;SDS011;6473;51.552;6.716;2022-12-07T00:33:28;15.47;;;12.83;;
12816;SDS011;6473;51.552;6.716;2022-12-07T00:35:55;15.40;;;12.73;;
12816;SDS011;6473;51.552;6.716;2022-12-07T00:38:22;18.90;;;12.80;;
12816;SDS011;6473;51.552;6.716;2022-12-07T00:40:53;16.20;;;12.90;;
12816;SDS011;6473;51.552;6.716;2022-12-07T00:43:22;16.50;;;12.77;;
12816;SDS011;6473;51.552;6.716;2022-12-07T00:45:51;17.93;;;13.70;;
12816;SDS011;6473;51.552;6.716;2022-12-07T00:48:18;19.37;;;13.53;;
12816;SDS011;6473;51.552;6.716;2022-12-07T00:50:46;16.83;;;13.53;;
12816;SDS011;6473;51.552;6.716;2022-12-07T00:53:13;17.67;;;13.53;;
12816;SDS011;6473;51.552;6.716;2022-12-07T00:55:40;19.80;;;13.40;;
12816;SDS011;6473;51.552;6.716;2022-12-07T00:58:07;19.63;;;13.97;;
12816;SDS011;6473;51.552;6.716;2022-12-07T01:00:35;17.17;;;13.23;;
12816;SDS011;6473;51.552;6.716;2022-12-07T01:03:04;20.73;;;13.90;;
12816;SDS011;6473;51.552;6.716;2022-12-07T01:05:32;19.17;;;13.37;;
12816;SDS011;6473;51.552;6.716;2022-12-07T01:07:59;18.43;;;13.83;;
12816;SDS011;6473;51.552;6.716;2022-12-07T01:10:26;17.27;;;13.67;;
12816;SDS011;6473;51.552;6.716;2022-12-07T01:12:55;18.27;;;14.00;;
12816;SDS011;6473;51.552;6.716;2022-12-07T01:15:22;16.77;;;12.73;;
12816;SDS011;6473;51.552;6.716;2022-12-07T01:17:49;16.40;;;13.10;;
12816;SDS011;6473;51.552;6.716;2022-12-07T01:20:18;16.00;;;13.63;;
12816;SDS011;6473;51.552;6.716;2022-12-07T01:22:45;18.73;;;14.23;;
12816;SDS011;6473;51.552;6.716;2022-12-07T01:25:11;18.53;;;13.80;;
12816;SDS011;6473;51.552;6.716;2022-12-07T01:27:38;17.93;;;13.37;;
12816;SDS011;6473;51.552;6.716;2022-12-07T01:30:06;16.63;;;13.63;;
12816;SDS011;6473;51.552;6.716;2022-12-07T01:32:34;19.40;;;14.17;;
12816;SDS011;6473;51.552;6.716;2022-12-07T01:35:00;21.53;;;13.27;;
12816;SDS011;6473;51.552;6.716;2022-12-07T01:37:29;18.33;;;13.83;;
12816;SDS011;6473;51.552;6.716;2022-12-07T01:40:00;21.40;;;15.07;;
12816;SDS011;6473;51.552;6.716;2022-12-07T01:42:27;21.87;;;14.17;;
12816;SDS011;6473;51.552;6.716;2022-12-07T01:48:02;18.93;;;13.53;;
12816;SDS011;6473;51.552;6.716;2022-12-07T01:50:32;17.43;;;13.37;;
12816;SDS011;6473;51.552;6.716;2022-12-07T01:53:01;19.77;;;15.77;;
12816;SDS011;6473;51.552;6.716;2022-12-07T01:55:32;17.43;;;13.03;;
12816;SDS011;6473;51.552;6.716;2022-12-07T01:58:03;16.17;;;12.87;;
12816;SDS011;6473;51.552;6.716;2022-12-07T02:00:30;16.20;;;12.73;;
12816;SDS011;6473;51.552;6.716;2022-12-07T02:02:59;18.83;;;13.50;;
12816;SDS011;6473;51.552;6.716;2022-12-07T02:05:31;16.50;;;12.93;;
12816;SDS011;6473;51.552;6.716;2022-12-07T02:08:01;17.40;;;12.90;;
12816;SDS011;6473;51.552;6.716;2022-12-07T02:10:29;15.63;;;13.50;;
12816;SDS011;6473;51.552;6.716;2022-12-07T02:12:58;16.93;;;12.83;;
12816;SDS011;6473;51.552;6.716;2022-12-07T02:15:33;15.80;;;12.80;;
12816;SDS011;6473;51.552;6.716;2022-12-07T02:18:09;16.60;;;12.73;;
12816;SDS011;6473;51.552;6.716;2022-12-07T02:20:43;18.87;;;13.37;;
12816;SDS011;6473;51.552;6.716;2022-12-07T02:23:27;16.73;;;12.57;;
12816;SDS011;6473;51.552;6.716;2022-12-07T02:29:11;18.90;;;13.13;;
12816;SDS011;6473;51.552;6.716;2022-12-07T02:31:43;19.57;;;13.07;;
12816;SDS011;6473;51.552;6.716;2022-12-07T02:34:15;18.77;;;13.23;;
12816;SDS011;6473;51.552;6.716;2022-12-07T02:36:51;21.57;;;14.20;;
12816;SDS011;6473;51.552;6.716;2022-12-07T02:39:24;20.17;;;14.37;;
12816;SDS011;6473;51.552;6.716;2022-12-07T02:41:59;18.17;;;14.23;;
12816;SDS011;6473;51.552;6.716;2022-12-07T02:44:35;21.50;;;14.10;;
12816;SDS011;6473;51.552;6.716;2022-12-07T02:47:05;18.97;;;14.00;;
12816;SDS011;6473;51.552;6.716;2022-12-07T02:49:35;21.27;;;13.53;;
12816;SDS011;6473;51.552;6.716;2022-12-07T02:52:05;21.67;;;12.93;;
12816;SDS011;6473;51.552;6.716;2022-12-07T02:54:33;19.03;;;13.07;;
12816;SDS011;6473;51.552;6.716;2022-12-07T02:57:02;18.83;;;13.47;;
12816;SDS011;6473;51.552;6.716;2022-12-07T02:59:40;22.70;;;14.03;;
12816;SDS011;6473;51.552;6.716;2022-12-07T03:02:23;20.93;;;14.30;;
12816;SDS011;6473;51.552;6.716;2022-12-07T03:05:00;18.93;;;14.00;;
12816;SDS011;6473;51.552;6.716;2022-12-07T03:07:42;18.70;;;13.57;;
12816;SDS011;6473;51.552;6.716;2022-12-07T03:10:18;17.67;;;13.20;;
12816;SDS011;6473;51.552;6.716;2022-12-07T03:12:53;19.33;;;13.30;;
12816;SDS011;6473;51.552;6.716;2022-12-07T03:15:31;19.70;;;13.53;;
12816;SDS011;6473;51.552;6.716;2022-12-07T03:18:02;19.90;;;13.47;;
12816;SDS011;6473;51.552;6.716;2022-12-07T03:20:31;18.93;;;13.47;;
12816;SDS011;6473;51.552;6.716;2022-12-07T03:23:02;17.33;;;12.27;;
12816;SDS011;6473;51.552;6.716;2022-12-07T03:25:33;20.17;;;13.33;;
12816;SDS011;6473;51.552;6.716;2022-12-07T03:28:02;19.10;;;13.03;;
12816;SDS011;6473;51.552;6.716;2022-12-07T03:30:34;17.97;;;12.67;;
12816;SDS011;6473;51.552;6.716;2022-12-07T03:33:10;19.83;;;13.40;;
12816;SDS011;6473;51.552;6.716;2022-12-07T03:35:40;19.70;;;12.90;;
12816;SDS011;6473;51.552;6.716;2022-12-07T03:38:14;17.20;;;12.77;;
12816;SDS011;6473;51.552;6.716;2022-12-07T03:40:48;16.00;;;12.70;;
12816;SDS011;6473;51.552;6.716;2022-12-07T03:43:21;17.30;;;13.03;;
12816;SDS011;6473;51.552;6.716;2022-12-07T03:45:51;17.87;;;13.40;;
12816;SDS011;6473;51.552;6.716;2022-12-07T03:48:30;20.50;;;14.67;;
12816;SDS011;6473;51.552;6.716;2022-12-07T03:51:01;20.77;;;13.97;;
12816;SDS011;6473;51.552;6.716;2022-12-07T03:53:37;21.57;;;13.90;;
12816;SDS011;6473;51.552;6.716;2022-12-07T03:56:09;21.13;;;14.60;;
12816;SDS011;6473;51.552;6.716;2022-12-07T03:58:38;18.27;;;13.57;;
12816;SDS011;6473;51.552;6.716;2022-12-07T04:01:08;20.37;;;14.47;;
12816;SDS011;6473;51.552;6.716;2022-12-07T04:03:35;22.43;;;14.60;;
12816;SDS011;6473;51.552;6.716;2022-12-07T04:06:03;20.70;;;14.27;;
12816;SDS011;6473;51.552;6.716;2022-12-07T04:08:31;22.57;;;15.00;;
12816;SDS011;6473;51.552;6.716;2022-12-07T04:10:59;20.47;;;14.70;;
12816;SDS011;6473;51.552;6.716;2022-12-07T04:13:26;24.37;;;15.50;;
12816;SDS011;6473;51.552;6.716;2022-12-07T04:15:54;21.90;;;14.10;;
12816;SDS011;6473;51.552;6.716;2022-12-07T04:18:23;22.60;;;14.70;;
12816;SDS011;6473;51.552;6.716;2022-12-07T04:20:50;21.17;;;14.13;;
12816;SDS011;6473;51.552;6.716;2022-12-07T04:23:17;23.23;;;14.50;;
12816;SDS011;6473;51.552;6.716;2022-12-07T04:25:47;19.97;;;13.87;;
12816;SDS011;6473;51.552;6.716;2022-12-07T04:28:14;23.00;;;14.40;;
12816;SDS011;6473;51.552;6.716;2022-12-07T04:30:42;25.13;;;14.53;;
12816;SDS011;6473;51.552;6.716;2022-12-07T04:33:09;22.30;;;15.47;;
12816;SDS011;6473;51.552;6.716;2022-12-07T04:35:38;25.80;;;15.23;;
12816;SDS011;6473;51.552;6.716;2022-12-07T04:38:06;19.73;;;14.27;;
12816;SDS011;6473;51.552;6.716;2022-12-07T04:40:34;20.33;;;14.07;;
12816;SDS011;6473;51.552;6.716;2022-12-07T04:43:04;24.27;;;15.07;;
12816;SDS011;6473;51.552;6.716;2022-12-07T04:45:31;23.63;;;14.87;;
12816;SDS011;6473;51.552;6.716;2022-12-07T04:47:59;22.67;;;14.90;;
12816;SDS011;6473;51.552;6.716;2022-12-07T04:50:26;25.27;;;14.50;;
12816;SDS011;6473;51.552;6.716;2022-12-07T04:52:55;22.37;;;15.87;;
12816;SDS011;6473;51.552;6.716;2022-12-07T04:55:23;19.80;;;15.00;;
12816;SDS011;6473;51.552;6.716;2022-12-07T04:57:50;22.03;;;15.30;;
12816;SDS011;6473;51.552;6.716;2022-12-07T05:00:18;22.53;;;14.33;;
12816;SDS011;6473;51.552;6.716;2022-12-07T05:02:46;18.93;;;14.30;;
12816;SDS011;6473;51.552;6.716;2022-12-07T05:05:13;22.63;;;15.07;;
12816;SDS011;6473;51.552;6.716;2022-12-07T05:07:41;20.43;;;13.40;;
12816;SDS011;6473;51.552;6.716;2022-12-07T05:10:10;22.57;;;14.30;;
12816;SDS011;6473;51.552;6.716;2022-12-07T05:12:37;22.40;;;14.00;;
12816;SDS011;6473;51.552;6.716;2022-12-07T05:15:05;20.17;;;13.30;;
12816;SDS011;6473;51.552;6.716;2022-12-07T05:17:33;23.50;;;14.20;;
12816;SDS011;6473;51.552;6.716;2022-12-07T05:20:00;24.03;;;14.50;;
12816;SDS011;6473;51.552;6.716;2022-12-07T05:22:28;23.67;;;14.57;;
12816;SDS011;6473;51.552;6.716;2022-12-07T05:24:55;22.43;;;14.73;;
12816;SDS011;6473;51.552;6.716;2022-12-07T05:27:24;23.20;;;14.60;;
12816;SDS011;6473;51.552;6.716;2022-12-07T05:29:52;22.37;;;13.57;;
12816;SDS011;6473;51.552;6.716;2022-12-07T05:32:29;20.40;;;13.50;;
12816;SDS011;6473;51.552;6.716;2022-12-07T05:34:57;21.27;;;13.07;;
12816;SDS011;6473;51.552;6.716;2022-12-07T05:37:25;20.70;;;14.17;;
12816;SDS011;6473;51.552;6.716;2022-12-07T05:39:52;22.03;;;12.30;;
12816;SDS011;6473;51.552;6.716;2022-12-07T05:42:20;17.63;;;12.53;;
12816;SDS011;6473;51.552;6.716;2022-12-07T05:44:49;18.70;;;11.90;;
12816;SDS011;6473;51.552;6.716;2022-12-07T05:47:16;23.70;;;12.93;;
12816;SDS011;6473;51.552;6.716;2022-12-07T05:49:44;19.17;;;12.63;;
12816;SDS011;6473;51.552;6.716;2022-12-07T05:52:11;17.80;;;12.60;;
12816;SDS011;6473;51.552;6.716;2022-12-07T05:54:39;17.87;;;12.20;;
12816;SDS011;6473;51.552;6.716;2022-12-07T05:57:08;17.37;;;12.57;;
12816;SDS011;6473;51.552;6.716;2022-12-07T05:59:36;19.37;;;12.20;;
12816;SDS011;6473;51.552;6.716;2022-12-07T06:02:04;16.53;;;11.67;;
12816;SDS011;6473;51.552;6.716;2022-12-07T06:04:35;17.20;;;11.33;;
12816;SDS011;6473;51.552;6.716;2022-12-07T06:07:04;15.93;;;10.73;;
12816;SDS011;6473;51.552;6.716;2022-12-07T06:09:32;15.70;;;10.80;;
12816;SDS011;6473;51.552;6.716;2022-12-07T06:12:00;15.73;;;11.50;;
12816;SDS011;6473;51.552;6.716;2022-12-07T06:14:46;13.13;;;10.60;;
12816;SDS011;6473;51.552;6.716;2022-12-07T06:17:15;15.80;;;12.03;;
12816;SDS011;6473;51.552;6.716;2022-12-07T06:19:42;17.47;;;10.87;;
12816;SDS011;6473;51.552;6.716;2022-12-07T06:22:10;14.73;;;11.30;;
12816;SDS011;6473;51.552;6.716;2022-12-07T06:24:38;15.07;;;10.40;;
12816;SDS011;6473;51.552;6.716;2022-12-07T06:27:06;14.20;;;10.23;;
12816;SDS011;6473;51.552;6.716;2022-12-07T06:29:33;16.03;;;10.93;;
12816;SDS011;6473;51.552;6.716;2022-12-07T06:32:00;13.90;;;10.33;;
12816;SDS011;6473;51.552;6.716;2022-12-07T06:34:29;14.93;;;10.13;;
12816;SDS011;6473;51.552;6.716;2022-12-07T06:36:56;14.73;;;9.90;;
12816;SDS011;6473;51.552;6.716;2022-12-07T06:39:25;14.67;;;9.70;;
12816;SDS011;6473;51.552;6.716;2022-12-07T06:41:53;16.87;;;10.13;;
12816;SDS011;6473;51.552;6.716;2022-12-07T06:44:21;13.67;;;9.93;;
12816;SDS011;6473;51.552;6.716;2022-12-07T06:46:52;16.90;;;11.00;;
12816;SDS011;6473;51.552;6.716;2022-12-07T06:49:20;18.73;;;10.03;;
12816;SDS011;6473;51.552;6.716;2022-12-07T06:51:49;11.90;;;9.60;;
12816;SDS011;6473;51.552;6.716;2022-12-07T06:54:16;13.10;;;9.47;;
12816;SDS011;6473;51.552;6.716;2022-12-07T06:56:46;12.73;;;9.77;;
12816;SDS011;6473;51.552;6.716;2022-12-07T06:59:14;13.80;;;9.63;;
12816;SDS011;6473;51.552;6.716;2022-12-07T07:01:46;16.33;;;10.60;;
12816;SDS011;6473;51.552;6.716;2022-12-07T07:04:13;14.03;;;9.20;;
12816;SDS011;6473;51.552;6.716;2022-12-07T07:06:40;11.50;;;9.23;;
12816;SDS011;6473;51.552;6.716;2022-12-07T07:09:09;15.00;;;10.10;;
12816;SDS011;6473;51.552;6.716;2022-12-07T07:11:39;12.80;;;8.80;;
12816;SDS011;6473;51.552;6.716;2022-12-07T07:14:06;16.90;;;10.40;;
12816;SDS011;6473;51.552;6.716;2022-12-07T07:16:35;16.63;;;9.03;;
12816;SDS011;6473;51.552;6.716;2022-12-07T07:19:03;11.73;;;9.23;;
12816;SDS011;6473;51.552;6.716;2022-12-07T07:21:30;15.20;;;10.10;;
12816;SDS011;6473;51.552;6.716;2022-12-07T07:23:58;13.10;;;9.47;;
12816;SDS011;6473;51.552;6.716;2022-12-07T07:26:26;15.40;;;10.10;;
12816;SDS011;6473;51.552;6.716;2022-12-07T07:28:55;13.53;;;9.53;;
12816;SDS011;6473;51.552;6.716;2022-12-07T07:31:23;14.80;;;9.50;;
12816;SDS011;6473;51.552;6.716;2022-12-07T07:33:51;15.67;;;9.40;;
12816;SDS011;6473;51.552;6.716;2022-12-07T07:36:18;11.50;;;9.20;;
12816;SDS011;6473;51.552;6.716;2022-12-07T07:38:46;14.57;;;9.87;;
12816;SDS011;6473;51.552;6.716;2022-12-07T07:41:19;11.47;;;9.20;;
12816;SDS011;6473;51.552;6.716;2022-12-07T07:43:48;14.83;;;10.10;;
12816;SDS011;6473;51.552;6.716;2022-12-07T07:46:16;15.10;;;10.70;;
12816;SDS011;6473;51.552;6.716;2022-12-07T07:48:44;14.30;;;9.73;;
12816;SDS011;6473;51.552;6.716;2022-12-07T07:51:11;13.73;;;9.27;;
12816;SDS011;6473;51.552;6.716;2022-12-07T07:53:42;12.53;;;9.13;;
12816;SDS011;6473;51.552;6.716;2022-12-07T07:56:09;11.67;;;8.43;;
12816;SDS011;6473;51.552;6.716;2022-12-07T07:58:36;13.93;;;8.90;;
12816;SDS011;6473;51.552;6.716;2022-12-07T08:01:06;12.67;;;7.80;;
12816;SDS011;6473;51.552;6.716;2022-12-07T08:03:34;11.57;;;7.87;;
12816;SDS011;6473;51.552;6.716;2022-12-07T08:06:02;11.80;;;7.47;;
12816;SDS011;6473;51.552;6.716;2022-12-07T08:08:29;10.83;;;7.97;;
12816;SDS011;6473;51.552;6.716;2022-12-07T08:10:57;9.67;;;7.63;;
12816;SDS011;6473;51.552;6.716;2022-12-07T08:13:26;9.40;;;7.37;;
12816;SDS011;6473;51.552;6.716;2022-12-07T08:15:54;10.93;;;7.90;;
12816;SDS011;6473;51.552;6.716;2022-12-07T08:18:23;9.63;;;7.27;;
12816;SDS011;6473;51.552;6.716;2022-12-07T08:20:51;10.77;;;7.80;;
12816;SDS011;6473;51.552;6.716;2022-12-07T08:23:18;13.60;;;7.63;;
12816;SDS011;6473;51.552;6.716;2022-12-07T08:25:45;13.43;;;7.80;;
12816;SDS011;6473;51.552;6.716;2022-12-07T08:28:13;9.97;;;7.97;;
12816;SDS011;6473;51.552;6.716;2022-12-07T08:30:40;11.60;;;7.83;;
12816;SDS011;6473;51.552;6.716;2022-12-07T08:33:08;11.80;;;7.73;;
12816;SDS011;6473;51.552;6.716;2022-12-07T08:35:40;14.17;;;8.27;;
12816;SDS011;6473;51.552;6.716;2022-12-07T08:38:08;14.90;;;7.50;;
12816;SDS011;6473;51.552;6.716;2022-12-07T08:40:36;10.30;;;7.50;;
12816;SDS011;6473;51.552;6.716;2022-12-07T08:43:04;12.47;;;7.70;;
12816;SDS011;6473;51.552;6.716;2022-12-07T08:45:31;11.27;;;7.97;;
12816;SDS011;6473;51.552;6.716;2022-12-07T08:48:01;10.77;;;7.53;;
12816;SDS011;6473;51.552;6.716;2022-12-07T08:50:33;9.87;;;7.20;;
12816;SDS011;6473;51.552;6.716;2022-12-07T08:53:03;13.40;;;7.73;;
12816;SDS011;6473;51.552;6.716;2022-12-07T08:55:32;13.77;;;7.80;;
12816;SDS011;6473;51.552;6.716;2022-12-07T08:58:01;9.47;;;6.93;;
12816;SDS011;6473;51.552;6.716;2022-12-07T09:00:30;9.53;;;7.07;;
12816;SDS011;6473;51.552;6.716;2022-12-07T09:02:57;12.43;;;7.47;;
12816;SDS011;6473;51.552;6.716;2022-12-07T09:05:25;9.23;;;6.60;;
12816;SDS011;6473;51.552;6.716;2022-12-07T09:07:54;8.73;;;6.73;;
12816;SDS011;6473;51.552;6.716;2022-12-07T09:10:28;8.60;;;6.10;;
12816;SDS011;6473;51.552;6.716;2022-12-07T09:12:55;9.27;;;5.67;;
12816;SDS011;6473;51.552;6.716;2022-12-07T09:15:25;8.33;;;5.30;;
12816;SDS011;6473;51.552;6.716;2022-12-07T09:17:52;6.73;;;4.80;;
12816;SDS011;6473;51.552;6.716;2022-12-07T09:20:20;6.40;;;5.27;;
12816;SDS011;6473;51.552;6.716;2022-12-07T09:22:47;7.43;;;4.87;;
12816;SDS011;6473;51.552;6.716;2022-12-07T09:25:14;6.47;;;4.40;;
12816;SDS011;6473;51.552;6.716;2022-12-07T09:27:42;8.93;;;5.30;;
12816;SDS011;6473;51.552;6.716;2022-12-07T09:30:10;7.20;;;4.70;;
12816;SDS011;6473;51.552;6.716;2022-12-07T09:32:37;7.20;;;4.20;;
12816;SDS011;6473;51.552;6.716;2022-12-07T09:35:04;7.07;;;4.93;;
12816;SDS011;6473;51.552;6.716;2022-12-07T09:37:31;7.93;;;4.80;;
12816;SDS011;6473;51.552;6.716;2022-12-07T09:40:00;8.17;;;5.23;;
12816;SDS011;6473;51.552;6.716;2022-12-07T09:42:28;7.80;;;4.73;;
12816;SDS011;6473;51.552;6.716;2022-12-07T09:44:59;7.85;;;4.97;;
12816;SDS011;6473;51.552;6.716;2022-12-07T09:47:27;9.07;;;4.63;;
12816;SDS011;6473;51.552;6.716;2022-12-07T09:49:55;11.03;;;4.47;;
12816;SDS011;6473;51.552;6.716;2022-12-07T09:52:30;8.80;;;4.95;;
12816;SDS011;6473;51.552;6.716;2022-12-07T09:54:57;7.32;;;4.93;;
12816;SDS011;6473;51.552;6.716;2022-12-07T09:57:27;8.02;;;4.53;;
12816;SDS011;6473;51.552;6.716;2022-12-07T09:59:56;5.90;;;4.60;;
12816;SDS011;6473;51.552;6.716;2022-12-07T10:02:34;9.88;;;4.50;;
12816;SDS011;6473;51.552;6.716;2022-12-07T10:05:03;10.07;;;4.60;;
12816;SDS011;6473;51.552;6.716;2022-12-07T10:07:32;6.68;;;4.70;;
12816;SDS011;6473;51.552;6.716;2022-12-07T10:10:01;8.43;;;5.45;;
12816;SDS011;6473;51.552;6.716;2022-12-07T10:12:29;6.28;;;5.68;;
12816;SDS011;6473;51.552;6.716;2022-12-07T10:14:58;10.02;;;6.00;;
12816;SDS011;6473;51.552;6.716;2022-12-07T10:17:34;8.95;;;5.72;;
12816;SDS011;6473;51.552;6.716;2022-12-07T10:20:14;9.55;;;5.85;;
12816;SDS011;6473;51.552;6.716;2022-12-07T10:25:39;4.97;;;3.47;;
12816;SDS011;6473;51.552;6.716;2022-12-07T10:28:17;5.53;;;3.13;;
12816;SDS011;6473;51.552;6.716;2022-12-07T10:30:48;3.47;;;2.70;;
12816;SDS011;6473;51.552;6.716;2022-12-07T10:33:28;5.25;;;3.08;;
12816;SDS011;6473;51.552;6.716;2022-12-07T10:35:57;7.15;;;2.72;;
12816;SDS011;6473;51.552;6.716;2022-12-07T10:38:24;6.07;;;2.63;;
12816;SDS011;6473;51.552;6.716;2022-12-07T10:41:02;5.60;;;2.85;;
12816;SDS011;6473;51.552;6.716;2022-12-07T10:43:30;3.13;;;2.25;;
12816;SDS011;6473;51.552;6.716;2022-12-07T10:46:13;4.72;;;2.50;;
12816;SDS011;6473;51.552;6.716;2022-12-07T10:48:59;6.45;;;2.72;;
12816;SDS011;6473;51.552;6.716;2022-12-07T10:51:36;4.40;;;2.38;;
12816;SDS011;6473;51.552;6.716;2022-12-07T10:54:10;5.82;;;2.70;;
12816;SDS011;6473;51.552;6.716;2022-12-07T10:56:45;3.40;;;2.17;;
12816;SDS011;6473;51.552;6.716;2022-12-07T10:59:25;5.20;;;2.67;;
12816;SDS011;6473;51.552;6.716;2022-12-07T11:02:12;4.05;;;2.10;;
12816;SDS011;6473;51.552;6.716;2022-12-07T11:04:56;2.92;;;2.17;;
12816;SDS011;6473;51.552;6.716;2022-12-07T11:07:32;4.65;;;2.30;;
12816;SDS011;6473;51.552;6.716;2022-12-07T11:10:09;3.78;;;2.28;;
12816;SDS011;6473;51.552;6.716;2022-12-07T11:12:47;6.30;;;2.13;;
12816;SDS011;6473;51.552;6.716;2022-12-07T11:15:24;7.50;;;2.45;;
12816;SDS011;6473;51.552;6.716;2022-12-07T11:17:56;6.40;;;2.97;;
12816;SDS011;6473;51.552;6.716;2022-12-07T11:20:33;5.10;;;2.15;;
12816;SDS011;6473;51.552;6.716;2022-12-07T11:23:11;2.53;;;2.20;;
12816;SDS011;6473;51.552;6.716;2022-12-07T11:25:46;5.03;;;2.40;;
12816;SDS011;6473;51.552;6.716;2022-12-07T11:28:24;3.92;;;2.10;;
12816;SDS011;6473;51.552;6.716;2022-12-07T11:31:03;6.45;;;2.28;;
12816;SDS011;6473;51.552;6.716;2022-12-07T11:33:40;4.38;;;2.20;;
12816;SDS011;6473;51.552;6.716;2022-12-07T11:36:17;3.45;;;2.33;;
12816;SDS011;6473;51.552;6.716;2022-12-07T11:38:57;3.85;;;2.00;;
12816;SDS011;6473;51.552;6.716;2022-12-07T11:41:28;2.65;;;1.80;;
12816;SDS011;6473;51.552;6.716;2022-12-07T11:43:59;4.63;;;1.98;;
12816;SDS011;6473;51.552;6.716;2022-12-07T11:46:43;6.65;;;2.50;;
12816;SDS011;6473;51.552;6.716;2022-12-07T11:49:19;4.68;;;2.00;;
12816;SDS011;6473;51.552;6.716;2022-12-07T11:51:52;4.13;;;1.95;;
12816;SDS011;6473;51.552;6.716;2022-12-07T11:54:24;6.28;;;2.30;;
12816;SDS011;6473;51.552;6.716;2022-12-07T11:56:54;7.20;;;2.55;;
12816;SDS011;6473;51.552;6.716;2022-12-07T11:59:29;5.63;;;2.50;;
12816;SDS011;6473;51.552;6.716;2022-12-07T12:02:03;3.22;;;2.10;;
12816;SDS011;6473;51.552;6.716;2022-12-07T12:04:44;5.53;;;2.47;;
12816;SDS011;6473;51.552;6.716;2022-12-07T12:07:19;4.75;;;2.78;;
12816;SDS011;6473;51.552;6.716;2022-12-07T12:09:49;5.18;;;2.50;;
12816;SDS011;6473;51.552;6.716;2022-12-07T12:12:28;4.85;;;2.65;;
12816;SDS011;6473;51.552;6.716;2022-12-07T12:15:23;4.63;;;2.58;;
12816;SDS011;6473;51.552;6.716;2022-12-07T12:18:11;4.10;;;2.63;;
12816;SDS011;6473;51.552;6.716;2022-12-07T12:20:51;4.15;;;3.03;;
12816;SDS011;6473;51.552;6.716;2022-12-07T12:23:23;3.58;;;2.15;;
12816;SDS011;6473;51.552;6.716;2022-12-07T12:25:55;4.78;;;3.00;;
12816;SDS011;6473;51.552;6.716;2022-12-07T12:28:26;4.72;;;2.55;;
12816;SDS011;6473;51.552;6.716;2022-12-07T12:31:09;3.30;;;2.28;;
12816;SDS011;6473;51.552;6.716;2022-12-07T12:33:42;3.63;;;1.95;;
12816;SDS011;6473;51.552;6.716;2022-12-07T12:36:17;5.85;;;2.50;;
12816;SDS011;6473;51.552;6.716;2022-12-07T12:38:49;6.78;;;2.40;;
12816;SDS011;6473;51.552;6.716;2022-12-07T12:47:53;4.57;;;2.60;;
12816;SDS011;6473;51.552;6.716;2022-12-07T12:50:26;3.00;;;2.03;;
12816;SDS011;6473;51.552;6.716;2022-12-07T12:53:02;4.57;;;2.72;;
12816;SDS011;6473;51.552;6.716;2022-12-07T12:55:53;2.88;;;2.20;;
12816;SDS011;6473;51.552;6.716;2022-12-07T12:58:48;4.27;;;2.87;;
12816;SDS011;6473;51.552;6.716;2022-12-07T13:04:17;5.68;;;2.40;;
12816;SDS011;6473;51.552;6.716;2022-12-07T13:07:13;6.88;;;2.85;;
12816;SDS011;6473;51.552;6.716;2022-12-07T13:10:02;2.88;;;2.30;;
12816;SDS011;6473;51.552;6.716;2022-12-07T13:12:30;4.70;;;2.67;;
12816;SDS011;6473;51.552;6.716;2022-12-07T13:14:58;4.38;;;2.33;;
12816;SDS011;6473;51.552;6.716;2022-12-07T13:23:16;4.88;;;2.60;;
12816;SDS011;6473;51.552;6.716;2022-12-07T13:25:49;4.82;;;2.83;;
12816;SDS011;6473;51.552;6.716;2022-12-07T13:28:21;6.30;;;3.05;;
12816;SDS011;6473;51.552;6.716;2022-12-07T13:30:58;9.38;;;3.08;;
12816;SDS011;6473;51.552;6.716;2022-12-07T13:33:30;5.07;;;2.58;;
12816;SDS011;6473;51.552;6.716;2022-12-07T13:36:00;2.83;;;2.00;;
12816;SDS011;6473;51.552;6.716;2022-12-07T13:38:28;8.30;;;2.95;;
12816;SDS011;6473;51.552;6.716;2022-12-07T13:41:03;3.65;;;2.15;;
12816;SDS011;6473;51.552;6.716;2022-12-07T13:43:42;4.50;;;2.80;;
12816;SDS011;6473;51.552;6.716;2022-12-07T13:46:11;6.38;;;2.35;;
12816;SDS011;6473;51.552;6.716;2022-12-07T13:48:43;2.75;;;2.00;;
12816;SDS011;6473;51.552;6.716;2022-12-07T13:51:17;4.50;;;2.20;;
12816;SDS011;6473;51.552;6.716;2022-12-07T13:53:46;2.17;;;2.03;;
12816;SDS011;6473;51.552;6.716;2022-12-07T13:56:14;7.50;;;2.30;;
12816;SDS011;6473;51.552;6.716;2022-12-07T13:58:41;3.63;;;2.20;;
12816;SDS011;6473;51.552;6.716;2022-12-07T14:01:09;3.70;;;2.28;;
12816;SDS011;6473;51.552;6.716;2022-12-07T14:03:38;3.92;;;2.13;;
12816;SDS011;6473;51.552;6.716;2022-12-07T14:09:06;5.00;;;2.47;;
12816;SDS011;6473;51.552;6.716;2022-12-07T14:11:35;4.28;;;2.38;;
12816;SDS011;6473;51.552;6.716;2022-12-07T14:14:04;4.72;;;2.00;;
12816;SDS011;6473;51.552;6.716;2022-12-07T14:16:32;6.00;;;2.30;;
12816;SDS011;6473;51.552;6.716;2022-12-07T14:19:01;2.67;;;2.00;;
12816;SDS011;6473;51.552;6.716;2022-12-07T14:21:30;3.33;;;1.87;;
12816;SDS011;6473;51.552;6.716;2022-12-07T14:24:02;5.10;;;2.17;;
12816;SDS011;6473;51.552;6.716;2022-12-07T14:26:36;6.57;;;2.22;;
12816;SDS011;6473;51.552;6.716;2022-12-07T14:31:56;5.05;;;2.33;;
12816;SDS011;6473;51.552;6.716;2022-12-07T14:34:24;3.93;;;2.10;;
12816;SDS011;6473;51.552;6.716;2022-12-07T14:36:51;5.07;;;1.93;;
12816;SDS011;6473;51.552;6.716;2022-12-07T14:39:18;5.17;;;2.30;;
12816;SDS011;6473;51.552;6.716;2022-12-07T14:41:47;6.97;;;3.00;;
12816;SDS011;6473;51.552;6.716;2022-12-07T14:44:17;5.50;;;2.83;;
12816;SDS011;6473;51.552;6.716;2022-12-07T14:46:45;8.27;;;2.90;;
12816;SDS011;6473;51.552;6.716;2022-12-07T14:49:13;6.23;;;2.93;;
12816;SDS011;6473;51.552;6.716;2022-12-07T14:51:40;4.13;;;2.40;;
12816;SDS011;6473;51.552;6.716;2022-12-07T14:54:11;6.33;;;2.70;;
12816;SDS011;6473;51.552;6.716;2022-12-07T14:56:41;5.80;;;2.60;;
12816;SDS011;6473;51.552;6.716;2022-12-07T14:59:10;5.07;;;2.80;;
12816;SDS011;6473;51.552;6.716;2022-12-07T15:01:38;5.57;;;2.30;;
12816;SDS011;6473;51.552;6.716;2022-12-07T15:04:05;4.70;;;3.13;;
12816;SDS011;6473;51.552;6.716;2022-12-07T15:06:32;10.70;;;7.60;;
12816;SDS011;6473;51.552;6.716;2022-12-07T15:08:59;6.43;;;3.10;;
12816;SDS011;6473;51.552;6.716;2022-12-07T15:11:26;8.33;;;3.40;;
12816;SDS011;6473;51.552;6.716;2022-12-07T15:13:53;8.20;;;3.13;;
12816;SDS011;6473;51.552;6.716;2022-12-07T15:16:39;8.27;;;2.87;;
12816;SDS011;6473;51.552;6.716;2022-12-07T15:19:12;6.27;;;2.80;;
12816;SDS011;6473;51.552;6.716;2022-12-07T15:21:40;5.30;;;2.07;;
12816;SDS011;6473;51.552;6.716;2022-12-07T15:24:08;3.97;;;1.70;;
12816;SDS011;6473;51.552;6.716;2022-12-07T15:26:35;8.87;;;2.20;;
12816;SDS011;6473;51.552;6.716;2022-12-07T15:29:03;8.60;;;3.17;;
12816;SDS011;6473;51.552;6.716;2022-12-07T15:31:30;6.53;;;2.47;;
12816;SDS011;6473;51.552;6.716;2022-12-07T15:33:58;10.57;;;2.77;;
12816;SDS011;6473;51.552;6.716;2022-12-07T15:36:26;3.30;;;2.13;;
12816;SDS011;6473;51.552;6.716;2022-12-07T15:38:55;4.70;;;2.20;;